createdAt,value
2018-10-12T06:11:19.285Z,21.73
2018-10-12T06:13:48.875Z,21.25
2018-10-12T06:16:17.997Z,20.95
2018-10-12T06:18:47.169Z,17.45
2018-10-12T06:21:16.349Z,16.82
2018-10-12T06:23:45.911Z,16.30
2018-10-12T06:26:16.794Z,13.03
2018-10-12T06:28:46.366Z,14.07
2018-10-12T06:31:15.970Z,14.10
2018-10-12T06:33:45.665Z,17.10
2018-10-12T06:36:14.759Z,14.10
2018-10-12T06:38:43.819Z,12.03
2018-10-12T06:41:13.533Z,13.20
2018-10-12T06:43:42.629Z,12.88
2018-10-12T06:46:11.816Z,11.45
2018-10-12T06:48:41.363Z,12.30
2018-10-12T06:51:10.499Z,13.98
2018-10-12T06:53:39.580Z,12.35
2018-10-12T06:56:09.339Z,14.30
2018-10-12T06:58:39.462Z,11.53
2018-10-12T07:01:09.943Z,11.68
2018-10-12T07:03:40.102Z,12.75
2018-10-12T07:06:08.657Z,14.43
2018-10-12T07:08:37.792Z,12.53
2018-10-12T07:11:08.429Z,15.63
2018-10-12T07:13:37.667Z,14.28
2018-10-12T07:16:07.391Z,19.77
2018-10-12T07:20:01.789Z,13.93
2018-10-12T07:22:31.187Z,13.88
2018-10-12T07:25:00.437Z,18.15
2018-10-12T07:27:29.844Z,15.18
2018-10-12T07:29:59.555Z,12.78
2018-10-12T07:32:30.011Z,13.53
2018-10-12T07:34:59.230Z,17.15
2018-10-12T07:37:28.332Z,16.90
2018-10-12T07:39:58.158Z,20.60
2018-10-12T07:42:27.364Z,15.88
2018-10-12T07:44:56.437Z,19.62
2018-10-12T07:47:25.794Z,22.22
2018-10-12T07:49:55.487Z,25.30
2018-10-12T07:52:24.751Z,27.62
2018-10-12T07:54:53.895Z,34.33
2018-10-12T07:57:29.119Z,24.98
2018-10-12T07:59:59.031Z,17.50
2018-10-12T08:02:28.879Z,19.82
2018-10-12T08:04:58.322Z,31.00
2018-10-12T08:07:27.994Z,20.23
2018-10-12T08:09:59.545Z,19.17
2018-10-12T08:12:29.438Z,21.75
2018-10-12T08:14:59.763Z,16.82
2018-10-12T08:17:28.920Z,18.32
2018-10-12T08:19:58.462Z,16.17
2018-10-12T08:22:28.082Z,14.28
2018-10-12T08:24:58.368Z,16.65
2018-10-12T08:27:28.925Z,22.27
2018-10-12T08:29:59.310Z,15.88
2018-10-12T08:32:29.993Z,22.15
2018-10-12T08:34:59.725Z,19.37
2018-10-12T08:37:29.586Z,21.23
2018-10-12T08:39:58.758Z,20.52
2018-10-12T08:42:28.214Z,18.80
2018-10-12T08:44:57.306Z,15.38
2018-10-12T08:47:27.246Z,17.23
2018-10-12T08:49:56.365Z,17.20
2018-10-12T08:52:25.463Z,20.72
2018-10-12T08:54:55.599Z,16.02
2018-10-12T08:57:24.906Z,16.73
2018-10-12T08:59:54.609Z,18.02
2018-10-12T09:02:25.246Z,22.67
2018-10-12T09:04:54.425Z,17.12
2018-10-12T09:07:23.461Z,19.65
2018-10-12T09:09:53.318Z,18.60
2018-10-12T09:12:22.395Z,15.58
2018-10-12T09:14:51.444Z,16.80
2018-10-12T09:17:25.162Z,16.12
2018-10-12T09:19:54.758Z,16.37
2018-10-12T09:22:23.841Z,16.73
2018-10-12T09:24:53.081Z,14.15
2018-10-12T09:27:22.211Z,13.62
2018-10-12T09:29:51.924Z,14.70
2018-10-12T09:32:21.506Z,17.45
2018-10-12T09:34:50.569Z,19.98
2018-10-12T09:37:19.642Z,14.93
2018-10-12T09:39:48.860Z,16.32
2018-10-12T09:42:18.125Z,14.93
2018-10-12T09:44:47.254Z,19.27
2018-10-12T09:47:17.393Z,17.05
2018-10-12T09:49:47.225Z,12.30
2018-10-12T09:52:17.115Z,13.18
2018-10-12T09:54:46.742Z,15.18
2018-10-12T09:57:36.592Z,12.65
2018-10-12T10:01:09.410Z,13.85
2018-10-12T10:03:43.963Z,23.02
2018-10-12T10:06:13.125Z,59.42
2018-10-12T10:08:42.297Z,28.02
2018-10-12T10:11:12.545Z,22.65
2018-10-12T10:13:41.637Z,16.50
2018-10-12T10:16:10.701Z,17.00
2018-10-12T10:18:39.773Z,25.70
2018-10-12T10:21:08.833Z,31.97
2018-10-12T10:23:37.978Z,17.98
2018-10-12T10:26:07.402Z,17.40
2018-10-12T10:28:36.546Z,15.28
2018-10-12T10:31:06.353Z,12.82
2018-10-12T10:33:35.811Z,11.05
2018-10-12T10:36:04.873Z,14.10
2018-10-12T10:38:34.803Z,14.93
2018-10-12T10:41:04.599Z,11.93
2018-10-12T10:43:34.026Z,13.35
2018-10-12T10:46:03.254Z,12.40
2018-10-12T10:48:33.490Z,14.43
2018-10-12T10:51:02.703Z,15.58
2018-10-12T10:53:32.079Z,12.58
2018-10-12T10:56:02.238Z,15.03
2018-10-12T10:58:31.293Z,13.48
2018-10-12T11:01:01.477Z,11.75
2018-10-12T11:03:30.494Z,14.35
2018-10-12T11:05:59.803Z,9.13
2018-10-12T11:08:29.101Z,11.22
2018-10-12T11:10:59.863Z,10.88
2018-10-12T11:13:28.998Z,11.70
2018-10-12T11:15:58.166Z,13.15
2018-10-12T11:18:27.261Z,12.85
2018-10-12T11:20:56.418Z,9.68
2018-10-12T11:23:25.547Z,12.43
2018-10-12T11:25:54.688Z,9.58
2018-10-12T11:28:24.420Z,10.53
2018-10-12T11:30:54.461Z,10.60
2018-10-12T11:33:24.109Z,9.98
2018-10-12T11:35:53.179Z,11.10
2018-10-12T11:38:22.359Z,8.98
2018-10-12T11:40:53.613Z,11.20
2018-10-12T11:43:26.774Z,8.40
2018-10-12T11:45:56.082Z,9.60
2018-10-12T11:48:25.886Z,9.18
2018-10-12T11:50:55.168Z,8.93
2018-10-12T11:53:25.226Z,12.35
2018-10-12T11:55:54.376Z,14.18
2018-10-12T11:58:23.770Z,8.40
2018-10-12T12:00:53.496Z,7.62
2018-10-12T12:03:22.782Z,10.18
2018-10-12T12:05:51.978Z,12.98
2018-10-12T12:08:21.068Z,8.30
2018-10-12T12:10:51.267Z,8.58
2018-10-12T12:13:20.528Z,8.98
2018-10-12T12:15:50.551Z,9.35
2018-10-12T12:18:19.648Z,11.28
2018-10-12T12:20:49.338Z,7.62
2018-10-12T12:23:18.468Z,8.83
2018-10-12T12:25:48.151Z,7.85
2018-10-12T12:28:17.210Z,8.70
2018-10-12T12:30:47.717Z,8.73
2018-10-12T12:33:17.298Z,9.38
2018-10-12T12:35:48.228Z,7.37
2018-10-12T12:38:16.922Z,10.43
2018-10-12T12:40:45.984Z,7.85
2018-10-12T12:43:15.227Z,8.93
2018-10-12T12:45:44.326Z,9.53
2018-10-12T12:48:14.567Z,8.20
2018-10-12T12:50:44.018Z,7.00
2018-10-12T12:53:13.306Z,8.25
2018-10-12T12:55:42.508Z,6.70
2018-10-12T12:58:11.590Z,8.88
2018-10-12T13:00:40.787Z,7.72
2018-10-12T13:03:10.009Z,7.85
2018-10-12T13:05:39.052Z,7.70
2018-10-12T13:08:08.163Z,8.45
2018-10-12T13:10:37.229Z,7.45
2018-10-12T13:13:06.678Z,7.33
2018-10-12T13:15:36.248Z,9.90
2018-10-12T13:18:05.420Z,8.08
2018-10-12T13:20:34.486Z,7.92
2018-10-12T13:23:03.590Z,8.55
2018-10-12T13:25:33.397Z,6.47
2018-10-12T13:28:02.461Z,7.65
2018-10-12T13:30:32.442Z,9.08
2018-10-12T13:33:01.943Z,6.95
2018-10-12T13:35:31.333Z,7.42
2018-10-12T13:38:00.429Z,7.55
2018-10-12T13:40:29.587Z,7.28
2018-10-12T13:42:59.006Z,7.50
2018-10-12T13:45:29.079Z,8.23
2018-10-12T13:47:59.595Z,7.83
2018-10-12T13:50:29.286Z,7.03
2018-10-12T13:52:58.350Z,9.00
2018-10-12T13:55:28.239Z,5.80
2018-10-12T13:57:57.561Z,6.47
2018-10-12T14:00:27.628Z,6.30
2018-10-12T14:02:56.598Z,6.70
2018-10-12T14:05:25.677Z,5.53
2018-10-12T14:07:54.759Z,8.13
2018-10-12T14:10:23.928Z,5.90
2018-10-12T14:12:53.717Z,7.60
2018-10-12T14:15:23.384Z,7.58
2018-10-12T14:17:52.543Z,7.28
2018-10-12T14:20:22.162Z,5.87
2018-10-12T14:22:51.365Z,7.42
2018-10-12T14:25:20.457Z,7.53
2018-10-12T14:27:49.726Z,7.17
2018-10-12T14:30:19.579Z,8.70
2018-10-12T14:32:49.975Z,6.65
2018-10-12T14:35:19.535Z,6.37
2018-10-12T14:37:48.666Z,5.72
2018-10-12T14:40:17.722Z,6.30
2018-10-12T14:42:46.998Z,5.45
2018-10-12T14:45:16.739Z,6.65
2018-10-12T14:47:46.481Z,7.03
2018-10-12T14:50:15.585Z,6.60
2018-10-12T14:52:45.549Z,8.13
2018-10-12T14:55:14.650Z,7.50
2018-10-12T14:57:44.478Z,6.78
2018-10-12T15:00:13.934Z,6.95
2018-10-12T15:02:43.025Z,5.97
2018-10-12T15:05:12.186Z,9.48
2018-10-12T15:07:41.250Z,5.90
2018-10-12T15:10:10.346Z,5.35
2018-10-12T15:12:39.947Z,5.97
2018-10-12T15:15:15.398Z,6.45
2018-10-12T15:17:45.852Z,5.42
2018-10-12T15:20:14.919Z,7.35
2018-10-12T15:22:44.713Z,6.08
2018-10-12T15:25:13.821Z,9.78
2018-10-12T15:27:44.020Z,5.05
2018-10-12T15:30:13.950Z,6.12
2018-10-12T15:32:44.288Z,6.28
2018-10-12T15:35:13.598Z,5.75
2018-10-12T15:37:43.372Z,5.42
2018-10-12T15:40:12.691Z,5.28
2018-10-12T15:42:41.931Z,7.30
2018-10-12T15:45:11.658Z,5.80
2018-10-12T15:47:42.147Z,5.37
2018-10-12T15:50:12.618Z,5.05
2018-10-12T15:52:42.227Z,7.20
2018-10-12T15:55:11.686Z,6.45
2018-10-12T15:57:41.097Z,5.33
2018-10-12T16:00:10.749Z,5.03
2018-10-12T16:02:40.123Z,6.62
2018-10-12T16:05:09.215Z,6.78
2018-10-12T16:07:39.083Z,5.70
2018-10-12T16:10:08.794Z,5.17
2018-10-12T16:12:38.917Z,5.90
2018-10-12T16:15:08.011Z,5.70
2018-10-12T16:17:37.332Z,4.53
2018-10-12T16:20:06.487Z,5.08
2018-10-12T16:22:36.489Z,4.80
2018-10-12T16:25:17.232Z,6.30
2018-10-12T16:27:46.286Z,5.80
2018-10-12T16:30:16.434Z,5.50
2018-10-12T16:32:46.165Z,5.22
2018-10-12T16:35:15.947Z,5.80
2018-10-12T16:37:45.014Z,5.05
2018-10-12T16:40:14.114Z,7.90
2018-10-12T16:42:43.818Z,6.12
2018-10-12T16:45:13.000Z,5.58
2018-10-12T16:49:07.676Z,7.00
2018-10-12T16:51:36.730Z,4.53
2018-10-12T16:54:06.706Z,4.53
2018-10-12T16:56:35.761Z,5.25
2018-10-12T16:59:05.752Z,5.33
2018-10-12T17:01:34.801Z,4.22
2018-10-12T17:04:03.919Z,6.95
2018-10-12T17:06:33.776Z,6.08
2018-10-12T17:09:03.382Z,11.55
2018-10-12T17:11:33.063Z,9.13
2018-10-12T17:14:03.058Z,12.13
2018-10-12T17:16:36.801Z,7.85
2018-10-12T17:19:07.131Z,7.53
2018-10-12T17:21:37.373Z,12.10
2018-10-12T17:24:06.938Z,8.18
2018-10-12T17:26:36.458Z,10.28
2018-10-12T17:29:05.986Z,8.83
2018-10-12T17:31:35.859Z,9.18
2018-10-12T17:34:06.525Z,10.90
2018-10-12T17:36:35.662Z,6.95
2018-10-12T17:39:09.258Z,10.85
2018-10-12T17:41:38.335Z,10.23
2018-10-12T17:44:07.399Z,19.37
2018-10-12T17:46:37.104Z,9.20
2018-10-12T17:49:06.300Z,9.08
2018-10-12T17:51:35.392Z,10.23
2018-10-12T17:54:05.494Z,10.13
2018-10-12T17:56:35.409Z,9.63
2018-10-12T17:59:04.514Z,9.65
2018-10-12T18:01:33.731Z,10.55
2018-10-12T18:04:02.850Z,11.00
2018-10-12T18:06:31.943Z,10.03
2018-10-12T18:09:02.429Z,9.48
2018-10-12T18:11:31.542Z,7.35
2018-10-12T18:14:03.911Z,11.20
2018-10-12T18:16:33.573Z,10.10
2018-10-12T18:19:05.810Z,8.10
2018-10-12T18:21:35.118Z,10.23
2018-10-12T18:24:08.953Z,12.93
2018-10-12T18:26:39.429Z,15.00
2018-10-12T18:29:10.400Z,11.12
2018-10-12T18:31:40.625Z,8.65
2018-10-12T18:34:11.948Z,10.75
2018-10-12T18:36:41.421Z,9.88
2018-10-12T18:39:14.928Z,13.65
2018-10-12T18:41:44.318Z,8.13
2018-10-12T18:44:14.114Z,9.30
2018-10-12T18:46:43.186Z,11.05
2018-10-12T18:49:12.792Z,10.60
2018-10-12T18:51:42.982Z,8.70
2018-10-12T18:54:13.320Z,9.50
2018-10-12T18:56:43.518Z,13.28
2018-10-12T18:59:15.673Z,9.58
2018-10-12T19:01:46.102Z,11.00
2018-10-12T19:04:17.909Z,9.00
2018-10-12T19:06:47.243Z,11.33
2018-10-12T19:09:21.935Z,12.15
2018-10-12T19:11:51.015Z,7.42
2018-10-12T19:14:21.442Z,10.72
2018-10-12T19:16:50.642Z,7.92
2018-10-12T19:19:19.842Z,6.15
2018-10-12T19:21:54.292Z,9.20
2018-10-12T19:24:24.843Z,7.55
2018-10-12T19:26:56.084Z,8.58
2018-10-12T19:29:26.617Z,6.97
2018-10-12T19:31:56.536Z,9.78
2018-10-12T19:34:25.644Z,14.18
2018-10-12T19:36:59.879Z,9.95
2018-10-12T19:39:30.173Z,13.98
2018-10-12T19:44:37.756Z,7.60
2018-10-12T19:47:07.603Z,7.45
2018-10-12T19:49:36.703Z,9.28
2018-10-12T19:52:07.079Z,9.98
2018-10-12T19:54:37.387Z,11.65
2018-10-12T19:57:06.531Z,7.30
2018-10-12T19:59:35.781Z,9.18
2018-10-12T20:02:05.843Z,7.20
2018-10-12T20:04:36.384Z,8.38
2018-10-12T20:07:06.204Z,8.73
2018-10-12T20:09:36.470Z,10.30
2018-10-12T20:12:06.098Z,10.25
2018-10-12T20:14:35.623Z,8.38
2018-10-12T20:17:05.116Z,10.48
2018-10-12T20:19:34.325Z,6.40
2018-10-12T20:22:03.470Z,9.65
2018-10-12T20:24:33.135Z,10.28
2018-10-12T20:27:02.195Z,11.65
2018-10-12T20:29:33.178Z,7.78
2018-10-12T20:32:03.286Z,7.72
2018-10-12T20:34:32.365Z,6.83
2018-10-12T20:37:01.622Z,9.58
2018-10-12T20:39:31.991Z,8.70
2018-10-12T20:42:02.688Z,6.70
2018-10-12T20:44:31.759Z,9.08
2018-10-12T20:47:03.948Z,6.33
2018-10-12T20:49:34.903Z,7.92
2018-10-12T20:52:03.958Z,8.73
2018-10-12T20:54:33.584Z,8.70
2018-10-12T20:57:03.430Z,6.67
2018-10-12T20:59:32.472Z,7.15
2018-10-12T21:02:01.620Z,7.75
2018-10-12T21:04:33.389Z,7.95
2018-10-12T21:07:02.984Z,6.08
2018-10-12T21:09:32.339Z,8.88
2018-10-12T21:12:01.909Z,6.92
2018-10-12T21:14:31.622Z,8.23
2018-10-12T21:17:00.701Z,9.75
2018-10-12T21:19:29.818Z,7.72
2018-10-12T21:21:59.432Z,6.33
2018-10-12T21:24:28.758Z,8.93
2018-10-12T21:26:57.950Z,7.80
2018-10-12T21:29:27.893Z,7.58
2018-10-12T21:31:57.588Z,5.83
2018-10-12T21:34:26.627Z,6.08
2018-10-12T21:36:56.794Z,9.23
2018-10-12T21:39:25.891Z,7.85
2018-10-12T21:41:59.123Z,7.03
2018-10-12T21:44:28.947Z,6.42
2018-10-12T21:46:58.974Z,6.72
2018-10-12T21:49:28.482Z,8.73
2018-10-12T21:51:57.534Z,5.97
2018-10-12T21:54:27.160Z,7.00
2018-10-12T21:56:58.682Z,7.45
2018-10-12T21:59:27.815Z,7.30
2018-10-12T22:01:56.883Z,6.40
2018-10-12T22:04:26.234Z,6.80
2018-10-12T22:06:55.325Z,7.90
2018-10-12T22:09:24.432Z,6.05
2018-10-12T22:11:57.928Z,6.75
2018-10-12T22:14:27.426Z,5.35
2018-10-12T22:16:56.494Z,9.73
2018-10-12T22:19:26.156Z,9.38
2018-10-12T22:21:55.264Z,7.83
2018-10-12T22:24:24.455Z,5.42
2018-10-12T22:26:54.373Z,6.53
2018-10-12T22:29:24.287Z,5.60
2018-10-12T22:31:53.791Z,7.42
2018-10-12T22:37:56.630Z,9.00
2018-10-12T22:40:26.351Z,6.85
2018-10-12T22:42:56.701Z,7.33
2018-10-12T22:45:26.269Z,8.40
2018-10-12T22:47:55.982Z,8.83
2018-10-12T22:50:25.210Z,6.22
2018-10-12T22:52:54.247Z,6.35
2018-10-12T22:55:23.421Z,5.55
2018-10-12T22:58:00.275Z,8.08
2018-10-12T23:00:30.658Z,5.67
2018-10-12T23:03:00.886Z,9.55
2018-10-12T23:05:30.593Z,5.40
2018-10-12T23:07:59.674Z,5.80
2018-10-12T23:10:28.769Z,6.30
2018-10-12T23:12:57.827Z,6.60
2018-10-12T23:15:27.368Z,8.05
2018-10-12T23:17:57.271Z,6.60
2018-10-12T23:20:26.321Z,5.70
2018-10-12T23:22:56.015Z,5.62
2018-10-12T23:25:26.949Z,6.35
2018-10-12T23:27:56.049Z,6.53
2018-10-12T23:30:26.098Z,6.92
2018-10-12T23:33:06.834Z,6.12
2018-10-12T23:35:36.530Z,9.23
2018-10-12T23:38:05.594Z,5.65
2018-10-12T23:40:35.230Z,7.00
2018-10-12T23:43:04.409Z,6.17
2018-10-12T23:45:33.490Z,8.35
2018-10-12T23:48:02.543Z,6.30
2018-10-12T23:50:31.625Z,8.38
2018-10-12T23:53:01.341Z,7.05
2018-10-12T23:55:30.985Z,6.08
2018-10-12T23:58:00.048Z,10.38
